Orto / Ocaso: 05:28 / 19:00 UTC (Datos para LEAX 26-04-2019)

[fuente: ADDS]

METAR:


LEMG 260230Z 30008KT 260V330 CAVOK 14/07 Q1021 NOSIG =
TAF LEMG 252300Z 2600/2624 31008KT 9999 SCT045 TX22/2613Z TN11/2606Z PROB40 TEMPO 2601/2610 29015G25KT TEMPO 2612/2616 VRB04KT BECMG 2620/2622 VRB03KT LEGR 260230Z AUTO VRB02KT 9999 NCD 06/05 Q1022 =
TAF LEGR 260200Z 2603/2703 VRB03KT CAVOK TX21/2615Z TN04/2603Z PROB30 TEMPO 2603/2608 3000 BR BECMG 2612/2614 35010KT BECMG 2618/2620 VRB03KT LEZL 260230Z 11003KT CAVOK 09/08 Q1023 NOSIG =
TAF LEZL 260200Z 2603/2703 34005KT CAVOK TX25/2615Z TN07/2606Z PROB40 TEMPO 2603/2607 3000 BR LEAM 260230Z AUTO 28004KT 230V300 9999 NCD 14/11 Q1020 =
TAF LEAM 260200Z 2603/2703 35007KT 9999 SCT025 TX18/2612Z TN13/2606Z BECMG 2609/2612 17010KT BECMG 2618/2620 35008KT LEBA 260200Z AUTO VRB01KT 9999 NCD 06/05 Q1023 =
TAF LEBA 260200Z 2603/2612 VRB03KT CAVOK PROB30 TEMPO 2603/2607 4000 BR LEJR 260230Z AUTO VRB02KT 9999 NCD 08/07 Q1023 =
TAF COR LEJR 252300Z 2600/2624 34004KT CAVOK TX23/2615Z TN06/2606Z PROB30 TEMPO 2602/2607 4000 BR BECMG 2606/2608 04010KT GEML 260230Z AUTO 26009KT 240V300 CAVOK 16/10 Q1022 =
TAF GEML 260200Z 2603/2703 26012KT 9999 SCT020 TX22/2614Z TN13/2606Z BECMG 2618/2621 VRB03KT LXGB 260150Z AUTO 26010KT 9999 // FEW005/// 14/10 Q1023 =
TAF LXGB 251627Z 2518/2522 27014KT 9999 FEW040

TAFOR:


TAF LEMG 252300Z 2600/2624 31008KT 9999 SCT045 TX22/2613Z TN11/2606Z PROB40 TEMPO 2601/2610 29015G25KT TEMPO 2612/2616 VRB04KT BECMG 2620/2622 VRB03KT =
TAF LEGR 260200Z 2603/2703 VRB03KT CAVOK TX21/2615Z TN04/2603Z PROB30 TEMPO 2603/2608 3000 BR BECMG 2612/2614 35010KT BECMG 2618/2620 VRB03KT =
TAF LEZL 260200Z 2603/2703 34005KT CAVOK TX25/2615Z TN07/2606Z PROB40 TEMPO 2603/2607 3000 BR =
TAF LEAM 260200Z 2603/2703 35007KT 9999 SCT025 TX18/2612Z TN13/2606Z BECMG 2609/2612 17010KT BECMG 2618/2620 35008KT =
TAF LEBA 260200Z 2603/2612 VRB03KT CAVOK PROB30 TEMPO 2603/2607 4000 BR =
TAF COR LEJR 252300Z 2600/2624 34004KT CAVOK TX23/2615Z TN06/2606Z PROB30 TEMPO 2602/2607 4000 BR BECMG 2606/2608 04010KT =
TAF GEML 260200Z 2603/2703 26012KT 9999 SCT020 TX22/2614Z TN13/2606Z BECMG 2618/2621 VRB03KT =
TAF LXGB 251627Z 2518/2522 27014KT 9999 FEW040 =

Recuerde que, aunque regularmente actualizada, la información meteorológica aquí presentada no debe ser utilizada para la planificación de vuelos. Si lo desea, puede consultar la información meteorológica adecuada, tanto de aeródromos como en ruta, por las vías oficialmente establecidas en la legislación -> AQUí